createdAt,value
2022-10-21T00:01:28.933Z,13.77
2022-10-21T00:03:56.015Z,10.45
2022-10-21T00:06:25.358Z,10.93
2022-10-21T00:08:52.229Z,10.80
2022-10-21T00:11:19.083Z,13.05
2022-10-21T00:13:46.028Z,11.20
2022-10-21T00:16:18.080Z,10.35
2022-10-21T00:18:48.461Z,9.43
2022-10-21T00:21:22.229Z,9.73
2022-10-21T00:23:51.760Z,10.82
2022-10-21T00:26:24.659Z,11.70
2022-10-21T00:28:56.868Z,7.97
2022-10-21T00:31:25.165Z,12.30
2022-10-21T00:33:52.446Z,12.32
2022-10-21T00:36:19.652Z,12.85
2022-10-21T00:38:49.728Z,10.85
2022-10-21T00:41:19.055Z,14.40
2022-10-21T00:44:06.958Z,13.43
2022-10-21T00:46:52.677Z,11.90
2022-10-21T00:49:41.303Z,12.70
2022-10-21T00:52:20.376Z,11.50
2022-10-21T00:54:50.509Z,11.45
2022-10-21T00:57:18.646Z,11.75
2022-10-21T00:59:54.022Z,10.68
2022-10-21T01:02:21.462Z,10.80
2022-10-21T01:04:56.605Z,11.73
2022-10-21T01:07:23.955Z,13.23
2022-10-21T01:09:53.033Z,12.65
2022-10-21T01:12:56.999Z,13.10
2022-10-21T01:15:52.623Z,13.40
2022-10-21T01:18:45.343Z,9.77
2022-10-21T01:21:25.581Z,11.55
2022-10-21T01:24:28.174Z,12.77
2022-10-21T01:27:50.886Z,11.77
2022-10-21T01:30:29.461Z,11.00
2022-10-21T01:33:26.109Z,13.02
2022-10-21T01:36:26.325Z,12.35
2022-10-21T01:39:28.553Z,11.00
2022-10-21T01:45:13.214Z,13.88
2022-10-21T01:48:10.229Z,18.48
2022-10-21T01:50:46.876Z,13.45
2022-10-21T01:53:19.655Z,12.35
2022-10-21T01:55:48.427Z,9.75
2022-10-21T01:58:23.961Z,12.13
2022-10-21T02:00:54.277Z,13.52
2022-10-21T02:03:27.325Z,15.88
2022-10-21T02:05:56.678Z,12.70
2022-10-21T02:08:23.707Z,12.10
2022-10-21T02:10:57.180Z,9.82
2022-10-21T02:13:31.317Z,9.18
2022-10-21T02:16:02.820Z,10.25
2022-10-21T02:21:05.398Z,9.57
2022-10-21T02:23:49.406Z,11.60
2022-10-21T02:26:16.732Z,11.02
2022-10-21T02:28:46.199Z,13.65
2022-10-21T02:32:09.438Z,9.77
2022-10-21T02:34:58.050Z,11.52
2022-10-21T02:37:31.938Z,9.52
2022-10-21T02:40:14.825Z,9.82
2022-10-21T02:42:51.078Z,9.25
2022-10-21T02:45:18.939Z,9.90
2022-10-21T02:47:49.469Z,9.75
2022-10-21T02:50:17.948Z,12.45
2022-10-21T02:52:44.834Z,10.68
2022-10-21T02:55:13.740Z,10.45
2022-10-21T02:57:40.989Z,10.93
2022-10-21T03:00:09.044Z,11.45
2022-10-21T03:02:36.208Z,13.57
2022-10-21T03:05:03.497Z,12.18
2022-10-21T03:07:30.444Z,10.07
2022-10-21T03:09:59.987Z,11.43
2022-10-21T03:12:29.134Z,10.50
2022-10-21T03:14:56.009Z,10.55
2022-10-21T03:17:25.217Z,8.07
2022-10-21T03:19:52.426Z,9.40
2022-10-21T03:22:21.779Z,10.13
2022-10-21T03:24:51.126Z,10.60
2022-10-21T03:27:17.999Z,8.45
2022-10-21T03:29:45.012Z,9.75
2022-10-21T03:32:27.588Z,10.43
2022-10-21T03:34:57.079Z,10.55
2022-10-21T03:37:24.035Z,10.63
2022-10-21T03:39:50.822Z,10.95
2022-10-21T03:42:19.978Z,11.73
2022-10-21T03:44:46.792Z,12.60
2022-10-21T03:47:13.650Z,11.13
2022-10-21T03:49:40.504Z,15.63
2022-10-21T03:52:07.343Z,9.57
2022-10-21T03:54:34.283Z,13.38
2022-10-21T03:57:01.227Z,13.98
2022-10-21T03:59:32.777Z,11.55
2022-10-21T04:04:31.374Z,13.10
2022-10-21T04:06:58.415Z,10.95
2022-10-21T04:09:25.428Z,13.05
2022-10-21T04:11:52.320Z,14.30
2022-10-21T04:14:20.041Z,11.20
2022-10-21T04:16:53.564Z,15.57
2022-10-21T04:19:32.238Z,11.18
2022-10-21T04:22:01.254Z,11.82
2022-10-21T04:24:28.279Z,13.10
2022-10-21T04:27:00.014Z,10.25
2022-10-21T04:29:26.937Z,10.68
2022-10-21T04:34:30.763Z,9.55
2022-10-21T04:37:01.061Z,7.85
2022-10-21T04:39:31.189Z,11.07
2022-10-21T04:41:58.748Z,12.00
2022-10-21T04:44:25.792Z,10.50
2022-10-21T04:46:56.124Z,10.38
2022-10-21T04:49:23.010Z,11.68
2022-10-21T04:51:49.963Z,10.57
2022-10-21T04:54:17.003Z,11.77
2022-10-21T04:56:48.537Z,28.40
2022-10-21T05:01:42.337Z,24.08
2022-10-21T05:04:09.201Z,17.13
2022-10-21T05:06:36.103Z,12.48
2022-10-21T05:09:03.616Z,10.60
2022-10-21T05:11:33.592Z,12.32
2022-10-21T05:14:00.533Z,9.75
2022-10-21T05:16:29.730Z,8.65
2022-10-21T05:18:56.647Z,11.18
2022-10-21T05:21:23.634Z,10.40
2022-10-21T05:23:50.631Z,13.05
2022-10-21T05:26:20.094Z,12.52
2022-10-21T05:28:47.010Z,13.30
2022-10-21T05:31:21.549Z,10.95
2022-10-21T05:33:48.397Z,11.70
2022-10-21T05:36:20.526Z,10.52
2022-10-21T05:38:54.729Z,9.45
2022-10-21T05:43:50.729Z,10.23
2022-10-21T05:46:17.752Z,10.90
2022-10-21T05:48:44.607Z,14.90
2022-10-21T05:51:13.955Z,15.52
2022-10-21T05:53:45.475Z,14.13
2022-10-21T05:58:42.235Z,11.40
2022-10-21T06:01:09.118Z,12.43
2022-10-21T06:03:36.008Z,11.50
2022-10-21T06:06:07.105Z,10.50
2022-10-21T06:08:37.435Z,14.27
2022-10-21T06:11:12.699Z,10.32
2022-10-21T06:13:42.556Z,12.45
2022-10-21T06:16:11.305Z,10.10
2022-10-21T06:18:41.953Z,11.43
2022-10-21T06:21:09.725Z,10.27
2022-10-21T06:23:36.952Z,13.13
2022-10-21T06:26:09.954Z,14.30
2022-10-21T06:28:39.515Z,11.52
2022-10-21T06:31:07.738Z,12.57
2022-10-21T06:33:34.981Z,13.95
2022-10-21T06:36:04.798Z,14.90
2022-10-21T06:38:33.092Z,10.13
2022-10-21T06:41:13.193Z,11.30
2022-10-21T06:43:42.037Z,11.55
2022-10-21T06:46:13.456Z,10.05
2022-10-21T06:48:40.655Z,13.55
2022-10-21T06:51:20.419Z,13.15
2022-10-21T06:53:53.294Z,14.45
2022-10-21T06:56:26.435Z,11.30
2022-10-21T06:58:56.762Z,9.30
2022-10-21T07:01:34.672Z,9.25
2022-10-21T07:04:09.097Z,9.00
2022-10-21T07:06:39.950Z,8.52
2022-10-21T07:09:08.335Z,9.18
2022-10-21T07:11:37.802Z,7.88
2022-10-21T07:14:05.274Z,8.38
2022-10-21T07:16:38.890Z,9.02
2022-10-21T07:19:08.894Z,10.77
2022-10-21T07:21:35.735Z,12.85
2022-10-21T07:24:04.794Z,12.02
2022-10-21T07:26:36.063Z,12.70
2022-10-21T07:29:06.260Z,8.35
2022-10-21T07:31:37.432Z,10.32
2022-10-21T07:34:06.873Z,9.40
2022-10-21T07:36:39.855Z,10.98
2022-10-21T07:39:13.054Z,11.02
2022-10-21T07:41:45.079Z,9.15
2022-10-21T07:44:14.082Z,9.32
2022-10-21T07:46:47.507Z,7.60
2022-10-21T07:49:16.327Z,7.90
2022-10-21T07:51:45.202Z,9.45
2022-10-21T07:54:21.030Z,10.70
2022-10-21T07:56:50.796Z,9.82
2022-10-21T07:59:20.624Z,8.13
2022-10-21T08:01:52.464Z,10.98
2022-10-21T08:04:23.124Z,7.78
2022-10-21T08:06:50.199Z,8.20
2022-10-21T08:09:17.659Z,11.30
2022-10-21T08:11:45.131Z,9.40
2022-10-21T08:14:15.618Z,7.97
2022-10-21T08:16:44.852Z,7.90
2022-10-21T08:19:19.519Z,7.30
2022-10-21T08:21:46.387Z,7.25
2022-10-21T08:24:13.266Z,8.18
2022-10-21T08:26:44.630Z,7.90
2022-10-21T08:29:11.484Z,5.70
2022-10-21T08:31:41.597Z,6.10
2022-10-21T08:34:08.984Z,7.68
2022-10-21T08:36:37.612Z,5.70
2022-10-21T08:39:05.897Z,6.47
2022-10-21T08:41:54.239Z,4.95
2022-10-21T08:44:47.163Z,8.05
2022-10-21T08:47:20.116Z,5.22
2022-10-21T08:50:19.181Z,5.10
2022-10-21T08:53:14.043Z,3.60
2022-10-21T08:55:44.082Z,2.90
2022-10-21T08:58:25.694Z,4.88
2022-10-21T09:04:07.332Z,3.65
2022-10-21T09:06:59.935Z,6.43
2022-10-21T09:09:44.161Z,3.95
2022-10-21T09:12:19.844Z,2.50
2022-10-21T09:15:15.467Z,3.25
2022-10-21T09:17:45.134Z,5.18
2022-10-21T09:20:42.046Z,4.47
2022-10-21T09:23:50.194Z,3.05
2022-10-21T09:26:44.947Z,3.42
2022-10-21T09:29:25.695Z,2.70
2022-10-21T09:31:57.286Z,5.27
2022-10-21T09:35:03.183Z,3.72
2022-10-21T09:37:44.727Z,5.82
2022-10-21T09:42:51.365Z,2.97
2022-10-21T09:45:34.388Z,4.55
2022-10-21T09:48:07.236Z,2.92
2022-10-21T09:50:35.796Z,3.00
2022-10-21T09:53:33.458Z,3.63
2022-10-21T09:56:11.272Z,4.85
2022-10-21T09:58:40.119Z,3.63
2022-10-21T10:01:07.160Z,3.50
2022-10-21T10:03:42.914Z,5.78
2022-10-21T10:06:09.801Z,3.88
2022-10-21T10:08:42.004Z,2.00
2022-10-21T10:11:08.912Z,3.78
2022-10-21T10:13:50.582Z,2.15
2022-10-21T10:16:33.291Z,4.35
2022-10-21T10:19:20.464Z,4.10
2022-10-21T10:22:10.466Z,5.10
2022-10-21T10:24:40.735Z,3.97
2022-10-21T10:27:19.691Z,3.47
2022-10-21T10:29:56.404Z,2.90
2022-10-21T10:32:29.176Z,4.65
2022-10-21T10:35:03.150Z,3.75
2022-10-21T10:37:36.677Z,4.25
2022-10-21T10:40:08.593Z,1.40
2022-10-21T10:42:43.162Z,1.35
2022-10-21T10:45:20.388Z,1.63
2022-10-21T10:47:52.370Z,2.00
2022-10-21T10:50:40.256Z,3.88
2022-10-21T10:53:28.150Z,2.17
2022-10-21T10:56:06.536Z,2.72
2022-10-21T10:58:42.197Z,2.40
2022-10-21T11:01:17.839Z,2.83
2022-10-21T11:04:16.411Z,3.22
2022-10-21T11:07:03.584Z,2.10
2022-10-21T11:09:34.679Z,4.40
2022-10-21T11:12:08.608Z,1.98
2022-10-21T11:14:35.530Z,2.63
2022-10-21T11:17:19.722Z,2.05
2022-10-21T11:20:14.760Z,3.70
2022-10-21T11:22:59.724Z,2.67
2022-10-21T11:25:43.108Z,2.72
2022-10-21T11:28:31.896Z,1.33
2022-10-21T11:31:25.671Z,3.00
2022-10-21T11:34:13.653Z,4.55
2022-10-21T11:37:17.594Z,3.28
2022-10-21T11:40:18.316Z,2.35
2022-10-21T11:42:53.643Z,6.00
2022-10-21T11:45:37.730Z,3.58
2022-10-21T11:48:39.067Z,2.20
2022-10-21T11:51:35.859Z,1.85
2022-10-21T11:54:21.364Z,1.17
2022-10-21T11:57:07.527Z,1.05
2022-10-21T11:59:57.895Z,0.90
2022-10-21T12:02:42.377Z,1.63
2022-10-21T12:05:36.749Z,2.95
2022-10-21T12:08:27.783Z,0.85
2022-10-21T12:11:01.865Z,1.25
2022-10-21T12:13:36.881Z,1.35
2022-10-21T12:16:15.890Z,2.67
2022-10-21T12:18:50.252Z,1.88
2022-10-21T12:21:23.682Z,1.40
2022-10-21T12:24:24.458Z,1.23
2022-10-21T12:26:56.968Z,1.30
2022-10-21T12:29:59.496Z,1.17
2022-10-21T12:32:49.512Z,1.30
2022-10-21T12:35:28.812Z,2.10
2022-10-21T12:37:55.592Z,1.02
2022-10-21T12:40:29.148Z,1.77
2022-10-21T12:43:18.019Z,0.70
2022-10-21T12:45:44.938Z,1.17
2022-10-21T12:48:40.521Z,0.60
2022-10-21T12:51:24.758Z,4.63
2022-10-21T12:54:04.730Z,0.80
2022-10-21T12:56:33.284Z,0.93
2022-10-21T12:59:05.901Z,0.63
2022-10-21T13:02:07.882Z,0.73
2022-10-21T13:04:34.692Z,0.80
2022-10-21T13:07:12.888Z,3.90
2022-10-21T13:09:51.792Z,2.50
2022-10-21T13:12:24.522Z,1.88
2022-10-21T13:14:54.487Z,2.25
2022-10-21T13:17:21.242Z,1.27
2022-10-21T13:20:06.998Z,1.08
2022-10-21T13:22:37.827Z,1.92
2022-10-21T13:25:21.219Z,1.02
2022-10-21T13:28:14.046Z,2.45
2022-10-21T13:31:01.680Z,1.58
2022-10-21T13:33:37.023Z,0.30
2022-10-21T13:36:12.716Z,0.60
2022-10-21T13:38:52.652Z,0.45
2022-10-21T13:41:31.008Z,0.30
2022-10-21T13:44:01.893Z,1.13
2022-10-21T13:46:39.125Z,0.82
2022-10-21T13:49:32.484Z,1.00
2022-10-21T13:51:59.431Z,1.40
2022-10-21T13:54:26.456Z,0.93
2022-10-21T13:56:53.572Z,0.60
2022-10-21T13:59:30.070Z,0.52
2022-10-21T14:01:58.492Z,1.50
2022-10-21T14:04:29.415Z,0.73
2022-10-21T14:07:08.880Z,0.43
2022-10-21T14:09:46.904Z,1.25
2022-10-21T14:12:41.724Z,1.15
2022-10-21T14:15:18.081Z,1.40
2022-10-21T14:17:55.080Z,2.20
2022-10-21T14:20:34.211Z,0.50
2022-10-21T14:23:18.855Z,1.08
2022-10-21T14:25:51.350Z,0.40
2022-10-21T14:28:20.809Z,0.77
2022-10-21T14:30:51.087Z,0.65
2022-10-21T14:33:25.455Z,0.93
2022-10-21T14:36:20.372Z,1.35
2022-10-21T14:39:03.225Z,0.85
2022-10-21T14:41:35.957Z,2.35
2022-10-21T14:44:20.214Z,0.85
2022-10-21T14:46:51.066Z,2.47
2022-10-21T14:49:29.668Z,5.28
2022-10-21T14:52:24.896Z,4.35
2022-10-21T14:55:06.649Z,2.85
2022-10-21T14:57:53.913Z,3.22
2022-10-21T15:00:34.669Z,1.90
2022-10-21T15:03:04.481Z,2.53
2022-10-21T15:05:49.162Z,2.72
2022-10-21T15:08:22.774Z,4.28
2022-10-21T15:11:04.644Z,3.97
2022-10-21T15:13:34.725Z,8.98
2022-10-21T15:16:18.793Z,5.10
2022-10-21T15:18:52.630Z,4.20
2022-10-21T15:21:34.331Z,2.33
2022-10-21T15:24:02.043Z,3.33
2022-10-21T15:26:45.946Z,5.70
2022-10-21T15:29:21.818Z,3.92
2022-10-21T15:31:48.946Z,2.85
2022-10-21T15:34:22.315Z,3.88
2022-10-21T15:36:49.443Z,4.00
2022-10-21T15:39:21.523Z,3.65
2022-10-21T15:41:55.204Z,4.32
2022-10-21T15:44:27.985Z,3.35
2022-10-21T15:46:59.516Z,6.43
2022-10-21T15:52:16.181Z,2.92
2022-10-21T15:54:46.691Z,3.53
2022-10-21T15:57:25.296Z,3.17
2022-10-21T15:59:56.764Z,5.40
2022-10-21T16:04:54.776Z,4.00
2022-10-21T16:07:35.182Z,6.00
2022-10-21T16:10:24.909Z,7.93
2022-10-21T16:12:52.655Z,6.20
2022-10-21T16:15:26.434Z,5.88
2022-10-21T16:17:56.963Z,4.25
2022-10-21T16:20:29.818Z,5.57
2022-10-21T16:23:00.645Z,5.18
2022-10-21T16:25:30.579Z,4.10
2022-10-21T16:28:02.821Z,4.57
2022-10-21T16:30:37.181Z,3.30
2022-10-21T16:33:04.319Z,4.05
2022-10-21T16:35:31.672Z,4.95
2022-10-21T16:37:58.556Z,3.70
2022-10-21T16:40:31.801Z,4.80
2022-10-21T16:43:00.934Z,3.67
2022-10-21T16:45:31.985Z,5.28
2022-10-21T16:48:01.058Z,5.32
2022-10-21T16:50:41.367Z,5.68
2022-10-21T16:53:14.889Z,4.60
2022-10-21T16:55:43.898Z,5.28
2022-10-21T16:58:10.884Z,5.05
2022-10-21T17:00:37.941Z,6.00
2022-10-21T17:03:09.914Z,6.85
2022-10-21T17:05:39.290Z,5.47
2022-10-21T17:08:06.173Z,5.10
2022-10-21T17:10:33.066Z,5.78
2022-10-21T17:13:02.454Z,4.60
2022-10-21T17:15:31.580Z,5.38
2022-10-21T17:18:00.655Z,3.85
2022-10-21T17:20:33.598Z,3.90
2022-10-21T17:23:00.939Z,5.53
2022-10-21T17:25:29.995Z,4.75
2022-10-21T17:28:02.223Z,4.07
2022-10-21T17:30:30.496Z,4.85
2022-10-21T17:32:57.439Z,5.63
2022-10-21T17:35:25.488Z,6.40
2022-10-21T17:37:59.750Z,8.07
2022-10-21T17:40:29.918Z,7.57
2022-10-21T17:43:01.733Z,7.95
2022-10-21T17:45:28.631Z,7.47
2022-10-21T17:48:00.097Z,7.97
2022-10-21T17:52:55.031Z,8.57
2022-10-21T17:55:24.859Z,6.50
2022-10-21T17:57:54.387Z,6.20
2022-10-21T18:00:21.351Z,7.57
2022-10-21T18:02:51.187Z,6.57
2022-10-21T18:05:21.029Z,6.68
2022-10-21T18:07:56.963Z,7.38
2022-10-21T18:10:30.136Z,6.40
2022-10-21T18:12:59.973Z,10.23
2022-10-21T18:15:31.416Z,7.00
2022-10-21T18:20:27.685Z,5.55
2022-10-21T18:23:17.832Z,7.75
2022-10-21T18:26:39.591Z,6.10
2022-10-21T18:45:33.085Z,5.70
2022-10-21T18:50:59.539Z,6.93
2022-10-21T18:57:39.139Z,8.57
2022-10-21T19:00:15.095Z,7.35
2022-10-21T19:06:54.789Z,7.30
2022-10-21T19:22:25.929Z,6.35
2022-10-21T19:24:53.254Z,6.70
2022-10-21T19:27:20.323Z,7.45
2022-10-21T19:30:02.719Z,7.03
2022-10-21T19:32:29.783Z,6.82
2022-10-21T19:34:56.821Z,7.40
2022-10-21T19:37:25.113Z,7.15
2022-10-21T19:43:15.021Z,8.98
2022-10-21T19:56:29.674Z,5.28
2022-10-21T20:02:30.192Z,9.00
2022-10-21T20:04:59.814Z,9.20
2022-10-21T20:07:48.612Z,8.20
2022-10-21T20:13:37.683Z,9.23
2022-10-21T20:16:25.690Z,7.90
2022-10-21T20:21:44.269Z,7.28
2022-10-21T20:27:33.321Z,11.27
2022-10-21T20:30:15.231Z,6.95
2022-10-21T20:32:54.042Z,7.85
2022-10-21T20:35:42.348Z,6.38
2022-10-21T20:38:11.106Z,6.65
2022-10-21T20:40:53.464Z,7.00
2022-10-21T20:43:23.498Z,7.60
2022-10-21T20:45:50.698Z,8.93
2022-10-21T20:52:52.719Z,8.68
2022-10-21T20:55:21.216Z,7.75
2022-10-21T20:58:14.699Z,7.55
2022-10-21T21:01:22.699Z,8.07
2022-10-21T21:04:25.633Z,8.63
2022-10-21T21:06:52.949Z,7.93
2022-10-21T21:09:38.046Z,8.98
2022-10-21T21:12:11.839Z,9.68
2022-10-21T21:14:44.006Z,12.77
2022-10-21T21:17:13.203Z,10.68
2022-10-21T21:19:45.173Z,12.73
2022-10-21T21:22:12.081Z,11.65
2022-10-21T21:24:41.553Z,13.10
2022-10-21T21:27:10.908Z,12.02
2022-10-21T21:29:37.794Z,10.90
2022-10-21T21:32:07.405Z,10.20
2022-10-21T21:34:36.677Z,11.13
2022-10-21T21:37:04.111Z,13.45
2022-10-21T21:39:33.375Z,12.45
2022-10-21T21:42:00.310Z,10.35
2022-10-21T21:44:29.526Z,8.10
2022-10-21T21:46:56.452Z,8.50
2022-10-21T21:49:23.462Z,6.93
2022-10-21T21:51:50.372Z,6.93
2022-10-21T21:54:17.430Z,3.90
2022-10-21T21:56:50.195Z,2.13
2022-10-21T21:59:21.665Z,1.13
2022-10-21T22:01:48.556Z,1.25
2022-10-21T22:04:17.777Z,1.58
2022-10-21T22:06:46.746Z,1.08
2022-10-21T22:09:13.850Z,2.17
2022-10-21T22:11:40.950Z,1.90
2022-10-21T22:14:07.912Z,1.67
2022-10-21T22:16:35.577Z,0.50
2022-10-21T22:19:02.491Z,0.68
2022-10-21T22:21:31.423Z,0.25
2022-10-21T22:23:58.432Z,1.63
2022-10-21T22:26:26.902Z,0.40
2022-10-21T22:28:54.529Z,0.90
2022-10-21T22:31:27.177Z,0.35
2022-10-21T22:34:01.017Z,0.90
2022-10-21T22:36:30.537Z,3.67
2022-10-21T22:39:01.553Z,1.52
2022-10-21T22:41:30.550Z,2.70
2022-10-21T22:43:59.905Z,1.30
2022-10-21T22:46:34.593Z,0.52
2022-10-21T22:49:06.663Z,0.52
2022-10-21T22:51:34.829Z,3.78
2022-10-21T22:54:05.630Z,0.70
2022-10-21T22:56:40.170Z,1.92
2022-10-21T22:59:08.150Z,0.63
2022-10-21T23:01:35.337Z,0.52
2022-10-21T23:04:05.314Z,1.42
2022-10-21T23:06:34.816Z,0.90
2022-10-21T23:09:03.417Z,0.95
2022-10-21T23:11:31.669Z,0.45
2022-10-21T23:14:03.406Z,2.35
2022-10-21T23:16:38.368Z,0.38
2022-10-21T23:19:09.880Z,2.90
2022-10-21T23:24:05.869Z,0.65
2022-10-21T23:26:35.896Z,0.20
2022-10-21T23:29:02.972Z,0.25
2022-10-21T23:31:29.883Z,0.82
2022-10-21T23:33:56.748Z,1.50
2022-10-21T23:36:23.767Z,2.25
2022-10-21T23:38:56.769Z,0.60
2022-10-21T23:41:24.136Z,0.65
2022-10-21T23:43:51.055Z,2.10
2022-10-21T23:46:18.022Z,2.28
2022-10-21T23:48:46.972Z,0.55
2022-10-21T23:51:15.910Z,0.35
2022-10-21T23:53:42.971Z,2.28
2022-10-21T23:56:09.909Z,0.30
2022-10-21T23:58:36.824Z,0.50
